CheckWX is a tool to help pilots better visualize weather data.  It is not intended as a substitute for an official pre-flight weather briefing.

04:50:34 UTC

ENHE TAF
Heidrun Airport
Norway
TAF ENHE 240200Z 2403/2412 05020KT CAVOK

Apr-24@
03:00 UTC

Apr-24 @ 03:00 UTC

Apr-24@
12:00 UTC

Apr-24 @ 12:00 UTC

TAF ENHE 240200Z 2403/2412 05020KT CAVOK
Wind
  • 050° at 20 KTS
Conditions
No significant weather
Cloud Levels
  • No significant clouds